Time;durP1;ratioP1;P1;durP2;ratioP2;P2;SDS_P1;SDS_P2;PMS_P1;PMS_P2;Temp;Humidity;BMP_temperature;BMP_pressure;BME280_temperature;BME280_humidity;BME280_pressure;Samples;Min_cycle;Max_cycle;Signal;HPM_P1;HPM_P2
2021/08/17 00:00:43;;;;;;;12.30;6.55;;;13.40;95.90;;;;;;5075052;28;20388;-52
2021/08/17 00:03:09;;;;;;;11.60;5.63;;;13.40;95.90;;;;;;5089251;28;20416;-57
2021/08/17 00:05:38;;;;;;;10.35;5.35;;;13.40;95.70;;;;;;5095562;28;20412;-54
2021/08/17 00:08:04;;;;;;;10.35;5.75;;;13.40;95.50;;;;;;5095178;28;20380;-52
2021/08/17 00:10:30;;;;;;;20.60;7.20;;;13.40;95.50;;;;;;5095486;28;20023;-53
2021/08/17 00:12:55;;;;;;;10.15;6.25;;;13.50;95.40;;;;;;5095681;28;20505;-53
2021/08/17 00:15:21;;;;;;;10.65;5.57;;;13.50;95.20;;;;;;5094743;28;20036;-56
2021/08/17 00:17:47;;;;;;;10.50;6.20;;;13.50;95.20;;;;;;5094391;28;20032;-53
2021/08/17 00:20:13;;;;;;;8.50;5.35;;;13.30;95.50;;;;;;5082204;28;20060;-54
2021/08/17 00:22:40;;;;;;;12.32;5.43;;;13.30;95.70;;;;;;5074662;28;20044;-55
2021/08/17 00:25:07;;;;;;;13.88;6.55;;;13.30;95.50;;;;;;5074044;28;20107;-56
2021/08/17 00:27:32;;;;;;;10.98;6.00;;;13.30;95.50;;;;;;5074275;28;20045;-53
2021/08/17 00:29:58;;;;;;;13.48;6.53;;;13.10;96.10;;;;;;5074368;28;20021;-56
2021/08/17 00:32:24;;;;;;;10.98;6.43;;;13.10;96.30;;;;;;5074877;28;20033;-56
2021/08/17 00:34:50;;;;;;;12.48;6.05;;;13.00;96.30;;;;;;5074700;28;20056;-56
2021/08/17 00:37:20;;;;;;;14.25;6.38;;;13.10;96.20;;;;;;5073751;28;20060;-55
2021/08/17 00:39:45;;;;;;;13.38;6.95;;;13.20;96.10;;;;;;5074799;28;20480;-53
2021/08/17 00:42:11;;;;;;;17.00;7.75;;;13.20;96.10;;;;;;5056573;28;20036;-53
2021/08/17 00:44:37;;;;;;;12.27;6.68;;;13.30;95.80;;;;;;5074332;28;20119;-52
2021/08/17 00:47:03;;;;;;;16.33;7.00;;;13.20;96.10;;;;;;5074324;28;20120;-52
2021/08/17 00:49:30;;;;;;;9.82;5.97;;;13.10;96.20;;;;;;5074164;28;20032;-52
2021/08/17 00:51:59;;;;;;;11.00;6.32;;;13.00;96.30;;;;;;5074918;28;20028;-52
2021/08/17 00:54:25;;;;;;;14.73;7.13;;;13.00;96.40;;;;;;5074243;28;20040;-53
2021/08/17 00:56:58;;;;;;;12.13;7.13;;;13.10;96.20;;;;;;5074046;28;20055;-54
2021/08/17 00:59:24;;;;;;;14.10;7.00;;;13.10;96.20;;;;;;5074024;28;20065;-56
2021/08/17 01:01:50;;;;;;;12.60;7.30;;;13.10;96.30;;;;;;5073773;28;20029;-56
2021/08/17 01:04:16;;;;;;;12.40;6.97;;;13.20;96.10;;;;;;5073851;28;20039;-55
2021/08/17 01:06:41;;;;;;;12.90;7.53;;;13.10;96.40;;;;;;5073227;28;20029;-54
2021/08/17 01:09:10;;;;;;;12.15;6.60;;;13.10;96.40;;;;;;5088431;28;20089;-54
2021/08/17 01:11:43;;;;;;;12.40;6.93;;;13.10;96.50;;;;;;5077154;28;20036;-53
2021/08/17 01:14:09;;;;;;;11.45;7.35;;;13.00;96.60;;;;;;5089254;28;20047;-52
2021/08/17 01:16:34;;;;;;;12.55;7.10;;;13.10;96.40;;;;;;5076246;28;20056;-55
2021/08/17 01:19:00;;;;;;;11.57;7.70;;;13.20;96.40;;;;;;5089896;28;20041;-54
2021/08/17 01:21:26;;;;;;;9.50;7.40;;;13.20;96.20;;;;;;5093627;28;20507;-55
2021/08/17 01:23:52;;;;;;;12.50;7.85;;;13.20;96.30;;;;;;5093872;28;20373;-56
2021/08/17 01:26:17;;;;;;;13.07;7.15;;;13.10;96.60;;;;;;5093446;28;20070;-52
2021/08/17 01:28:43;;;;;;;17.42;7.63;;;13.10;96.50;;;;;;5093948;28;20036;-52
2021/08/17 01:31:09;;;;;;;10.85;7.57;;;13.20;96.40;;;;;;5093985;28;20028;-53
2021/08/17 01:33:35;;;;;;;17.98;7.82;;;13.20;96.30;;;;;;5093764;28;20038;-53
2021/08/17 01:36:01;;;;;;;13.07;7.18;;;13.10;96.30;;;;;;5093150;28;20552;-57
2021/08/17 01:38:27;;;;;;;9.13;6.95;;;13.10;96.30;;;;;;5093984;28;20111;-53
2021/08/17 01:40:53;;;;;;;15.07;7.78;;;13.10;96.30;;;;;;5093163;28;20032;-57
2021/08/17 01:43:19;;;;;;;11.38;7.30;;;13.20;96.30;;;;;;5093253;28;20325;-52
2021/08/17 01:45:59;;;;;;;10.98;7.18;;;13.20;96.40;;;;;;5092713;28;20028;-55
2021/08/17 01:48:30;;;;;;;14.95;7.40;;;13.10;96.40;;;;;;5092948;28;20036;-52
2021/08/17 01:50:56;;;;;;;14.13;6.93;;;13.10;96.40;;;;;;5093145;28;20024;-56
2021/08/17 01:53:23;;;;;;;13.20;7.50;;;13.10;96.80;;;;;;5092855;28;20043;-54
2021/08/17 01:55:51;;;;;;;9.68;6.93;;;13.10;96.70;;;;;;5092551;28;20494;-52
2021/08/17 01:58:16;;;;;;;14.13;7.25;;;13.20;96.50;;;;;;5092850;28;20043;-52
2021/08/17 02:00:44;;;;;;;13.07;6.75;;;13.20;96.40;;;;;;5092994;28;20036;-56
2021/08/17 02:03:10;;;;;;;10.45;7.13;;;13.10;96.70;;;;;;5092938;28;20020;-56
2021/08/17 02:05:36;;;;;;;13.05;7.18;;;13.00;96.90;;;;;;5092917;28;20035;-57
2021/08/17 02:08:05;;;;;;;14.13;7.35;;;13.00;97.00;;;;;;5092706;28;20028;-55
2021/08/17 02:10:30;;;;;;;15.18;7.00;;;12.90;97.20;;;;;;5093290;28;20118;-55
2021/08/17 02:12:56;;;;;;;13.40;7.80;;;12.90;97.00;;;;;;5092780;28;20123;-56
2021/08/17 02:15:22;;;;;;;16.77;8.85;;;12.90;97.00;;;;;;5092727;28;20872;-50
2021/08/17 02:17:48;;;;;;;11.60;8.38;;;12.80;97.10;;;;;;5093562;28;20443;-57
2021/08/17 02:20:13;;;;;;;12.63;7.28;;;12.80;97.10;;;;;;5093253;28;20043;-57
2021/08/17 02:22:39;;;;;;;10.77;7.40;;;12.80;97.30;;;;;;5093207;28;20096;-53
2021/08/17 02:25:05;;;;;;;14.27;7.25;;;12.70;97.30;;;;;;5093168;28;20039;-55
2021/08/17 02:27:35;;;;;;;14.63;7.43;;;12.80;97.10;;;;;;5092138;28;20049;-55
2021/08/17 02:30:02;;;;;;;12.95;7.25;;;12.80;97.20;;;;;;5093208;28;20024;-51
2021/08/17 02:32:28;;;;;;;15.15;7.60;;;13.00;96.80;;;;;;5091796;28;20387;-53
2021/08/17 02:34:53;;;;;;;11.20;6.43;;;13.00;96.80;;;;;;5091710;28;20106;-54
2021/08/17 02:37:19;;;;;;;11.55;6.72;;;13.10;96.50;;;;;;5093361;28;20032;-50
2021/08/17 02:39:45;;;;;;;16.75;7.50;;;13.10;96.60;;;;;;5097450;28;20119;-51
2021/08/17 02:42:10;;;;;;;14.68;7.95;;;13.00;96.70;;;;;;5079183;28;20391;-56
2021/08/17 02:44:36;;;;;;;12.77;7.53;;;13.10;96.70;;;;;;5097569;28;20051;-55
2021/08/17 02:47:02;;;;;;;13.30;7.20;;;13.10;96.60;;;;;;5096414;28;20464;-53
2021/08/17 02:49:28;;;;;;;13.35;7.38;;;13.10;96.70;;;;;;5096490;28;20085;-54
2021/08/17 02:51:54;;;;;;;16.50;7.75;;;13.10;96.50;;;;;;5096533;28;20028;-54
2021/08/17 02:54:20;;;;;;;10.35;6.90;;;13.10;96.50;;;;;;5096553;28;20400;-54
2021/08/17 02:56:46;;;;;;;12.80;8.13;;;13.10;96.60;;;;;;5096159;28;20078;-53
2021/08/17 02:59:11;;;;;;;13.25;7.18;;;13.10;96.50;;;;;;5096054;28;20448;-53
2021/08/17 03:01:37;;;;;;;14.02;8.15;;;13.10;96.50;;;;;;5096745;28;20032;-56
2021/08/17 03:04:03;;;;;;;14.07;7.50;;;13.10;96.70;;;;;;5078011;28;20071;-55
2021/08/17 03:06:28;;;;;;;12.75;6.72;;;13.00;96.80;;;;;;5096076;28;20043;-52
2021/08/17 03:08:54;;;;;;;12.65;6.60;;;13.00;97.00;;;;;;5095871;28;20036;-53
2021/08/17 03:11:19;;;;;;;14.38;6.78;;;13.10;96.80;;;;;;5095875;28;20059;-54
2021/08/17 03:13:45;;;;;;;11.48;6.50;;;13.10;96.80;;;;;;5096456;28;20114;-54
2021/08/17 03:16:11;;;;;;;11.75;6.82;;;13.10;96.90;;;;;;5095799;28;20119;-54
2021/08/17 03:18:36;;;;;;;15.73;7.00;;;13.10;97.00;;;;;;5096037;28;20044;-56
2021/08/17 03:21:02;;;;;;;10.30;6.65;;;13.10;97.10;;;;;;5096321;28;20036;-56
2021/08/17 03:23:28;;;;;;;13.23;6.90;;;13.00;97.30;;;;;;5095538;28;20536;-54
2021/08/17 03:25:55;;;;;;;10.98;7.18;;;13.10;97.30;;;;;;5095328;28;20040;-54
2021/08/17 03:28:20;;;;;;;14.95;6.75;;;13.10;97.20;;;;;;5095380;28;20036;-51
2021/08/17 03:30:46;;;;;;;13.00;7.22;;;13.10;97.40;;;;;;5095626;28;20085;-54
2021/08/17 03:33:12;;;;;;;10.57;6.60;;;13.10;97.10;;;;;;5095479;28;20024;-54
2021/08/17 03:35:37;;;;;;;13.18;7.05;;;13.10;97.10;;;;;;5076827;28;20499;-56
2021/08/17 03:38:03;;;;;;;12.45;6.68;;;13.00;97.40;;;;;;5095217;28;20544;-53
2021/08/17 03:40:29;;;;;;;12.27;6.22;;;13.10;97.00;;;;;;5094902;28;20438;-52
2021/08/17 03:42:54;;;;;;;10.20;5.70;;;13.00;97.20;;;;;;5095518;28;20036;-54
2021/08/17 03:45:21;;;;;;;10.63;6.25;;;13.00;97.40;;;;;;5095061;28;20030;-53
2021/08/17 03:47:49;;;;;;;12.05;6.68;;;13.10;97.20;;;;;;5095025;28;20036;-53
2021/08/17 03:50:15;;;;;;;13.50;6.55;;;13.10;97.10;;;;;;5094445;28;20644;-56
2021/08/17 03:52:42;;;;;;;13.55;6.15;;;13.10;97.20;;;;;;5095464;28;20028;-54
2021/08/17 03:55:08;;;;;;;10.75;5.72;;;13.20;97.10;;;;;;5095124;28;20044;-54
2021/08/17 03:57:35;;;;;;;12.63;6.43;;;13.10;97.30;;;;;;5094854;28;20373;-54
2021/08/17 04:00:01;;;;;;;11.70;6.30;;;13.20;97.20;;;;;;5095839;28;20126;-55
2021/08/17 04:02:26;;;;;;;9.00;6.20;;;13.10;97.20;;;;;;5095369;28;20509;-54
2021/08/17 04:04:52;;;;;;;13.65;6.50;;;13.30;97.10;;;;;;5094963;28;20119;-52
2021/08/17 04:07:18;;;;;;;14.63;7.03;;;13.10;97.40;;;;;;5094815;28;20040;-57
2021/08/17 04:09:43;;;;;;;12.18;6.45;;;13.10;97.40;;;;;;5056043;28;20060;-53
2021/08/17 04:12:09;;;;;;;13.10;6.13;;;13.20;97.40;;;;;;5074679;28;20032;-52
2021/08/17 04:14:34;;;;;;;12.18;6.28;;;13.10;97.40;;;;;;5074921;28;20112;-56
2021/08/17 04:17:00;;;;;;;11.13;6.90;;;13.10;97.40;;;;;;5074166;28;20039;-50
2021/08/17 04:19:26;;;;;;;10.50;8.20;;;13.10;97.60;;;;;;5080366;28;20032;-53
2021/08/17 04:21:52;;;;;;;12.48;6.43;;;13.10;97.70;;;;;;5094472;28;20028;-53
2021/08/17 04:24:17;;;;;;;10.98;7.10;;;13.20;97.50;;;;;;5094080;28;20174;-56
2021/08/17 04:26:43;;;;;;;11.38;6.28;;;13.00;97.70;;;;;;5093828;28;20070;-56
2021/08/17 04:29:09;;;;;;;13.88;6.45;;;13.10;97.60;;;;;;5093952;28;20407;-57
2021/08/17 04:31:34;;;;;;;14.25;7.07;;;13.10;97.60;;;;;;5094159;28;20059;-57
2021/08/17 04:34:00;;;;;;;15.80;6.35;;;13.10;97.60;;;;;;5076506;28;20395;-55
2021/08/17 04:36:26;;;;;;;11.13;6.75;;;13.10;97.70;;;;;;5093768;28;20479;-50
2021/08/17 04:38:51;;;;;;;14.63;6.93;;;13.00;97.70;;;;;;5087432;28;20086;-57
2021/08/17 04:41:17;;;;;;;10.93;6.50;;;13.00;98.00;;;;;;5082329;28;20480;-51
2021/08/17 04:43:42;;;;;;;9.35;6.22;;;13.00;97.90;;;;;;5082164;28;20106;-56
2021/08/17 04:46:08;;;;;;;10.40;5.93;;;13.00;97.90;;;;;;5084195;28;20039;-53
2021/08/17 04:48:34;;;;;;;12.93;5.88;;;13.20;97.60;;;;;;5083353;28;20213;-56
2021/08/17 04:50:59;;;;;;;10.93;5.97;;;13.20;97.50;;;;;;5074643;28;20025;-57
2021/08/17 04:53:26;;;;;;;12.32;5.30;;;13.30;97.50;;;;;;5055350;28;20020;-55
2021/08/17 04:55:52;;;;;;;12.20;5.97;;;13.40;97.20;;;;;;5086138;28;20040;-51
2021/08/17 04:58:17;;;;;;;7.47;5.25;;;13.50;96.90;;;;;;5093066;28;20493;-57
2021/08/17 05:00:44;;;;;;;12.52;6.43;;;13.60;96.90;;;;;;5081359;28;20025;-56
2021/08/17 05:03:11;;;;;;;13.65;5.53;;;13.60;96.60;;;;;;5079910;28;20024;-53
2021/08/17 05:05:36;;;;;;;14.00;6.07;;;13.60;96.70;;;;;;5072711;28;20043;-53
2021/08/17 05:08:06;;;;;;;12.50;5.53;;;13.60;96.80;;;;;;5060794;28;20032;-57
2021/08/17 05:10:33;;;;;;;10.43;5.47;;;13.70;96.80;;;;;;5093251;28;20035;-54
2021/08/17 05:13:00;;;;;;;9.35;5.60;;;13.70;96.60;;;;;;5093364;28;20545;-53
2021/08/17 05:15:26;;;;;;;18.77;6.10;;;13.70;96.50;;;;;;5092970;28;20222;-52
2021/08/17 05:17:51;;;;;;;7.53;5.47;;;13.70;96.50;;;;;;5092807;28;20107;-55
2021/08/17 05:20:17;;;;;;;11.25;6.43;;;13.70;96.60;;;;;;5091472;28;20040;-55
2021/08/17 05:22:43;;;;;;;14.60;6.38;;;13.70;96.70;;;;;;5088963;28;20066;-53
2021/08/17 05:25:09;;;;;;;12.77;6.50;;;13.80;96.50;;;;;;5093220;28;20040;-57
2021/08/17 05:27:34;;;;;;;14.77;6.90;;;13.70;96.70;;;;;;5087040;28;20044;-55
2021/08/17 05:30:00;;;;;;;13.43;6.68;;;13.70;96.70;;;;;;5074900;28;20119;-57
2021/08/17 05:32:26;;;;;;;11.25;6.20;;;13.70;96.80;;;;;;5072473;28;20047;-50
2021/08/17 05:34:51;;;;;;;9.48;6.38;;;13.70;96.80;;;;;;5072535;28;20395;-51
2021/08/17 05:37:17;;;;;;;14.85;5.78;;;14.10;96.70;;;;;;5071730;28;20504;-52
2021/08/17 05:39:43;;;;;;;15.70;6.25;;;14.40;96.10;;;;;;5086255;28;20127;-52
2021/08/17 05:42:10;;;;;;;10.50;6.10;;;14.50;95.30;;;;;;5092989;28;20078;-49
2021/08/17 05:44:37;;;;;;;8.68;5.60;;;14.60;94.90;;;;;;5092519;28;20455;-50
2021/08/17 05:47:04;;;;;;;9.00;6.05;;;14.60;95.00;;;;;;5091981;28;20126;-50
2021/08/17 05:49:29;;;;;;;10.45;5.95;;;14.60;95.00;;;;;;5092487;28;20460;-52
2021/08/17 05:51:55;;;;;;;12.70;6.30;;;14.60;94.90;;;;;;5092082;28;20035;-49
2021/08/17 05:54:20;;;;;;;12.35;6.45;;;14.70;94.90;;;;;;5092530;28;20031;-51
2021/08/17 05:56:46;;;;;;;14.75;6.30;;;14.80;94.60;;;;;;5091845;28;20024;-49
2021/08/17 05:59:11;;;;;;;11.52;5.57;;;14.80;94.70;;;;;;5092459;28;20036;-53
2021/08/17 06:01:37;;;;;;;15.45;6.43;;;14.70;95.00;;;;;;5092433;28;20036;-52
2021/08/17 06:04:02;;;;;;;17.52;6.65;;;14.70;94.70;;;;;;5092748;28;20028;-51
2021/08/17 06:06:28;;;;;;;14.98;6.72;;;14.80;94.70;;;;;;5092042;28;20039;-54
2021/08/17 06:08:54;;;;;;;13.52;6.35;;;14.80;94.80;;;;;;5091965;28;20123;-56
2021/08/17 06:11:19;;;;;;;12.27;7.05;;;14.80;94.80;;;;;;5094323;28;20067;-53
2021/08/17 06:13:45;;;;;;;14.65;6.95;;;14.90;95.20;;;;;;5092372;28;20020;-51
2021/08/17 06:16:10;;;;;;;16.60;6.30;;;14.90;94.40;;;;;;5087357;28;20032;-53
2021/08/17 06:18:36;;;;;;;13.80;6.53;;;14.90;94.50;;;;;;5076568;28;20048;-53
2021/08/17 06:21:01;;;;;;;14.82;6.82;;;14.80;94.30;;;;;;5084104;28;20149;-52
2021/08/17 06:23:27;;;;;;;10.38;5.68;;;14.80;94.20;;;;;;5071640;28;20036;-49
2021/08/17 06:25:53;;;;;;;14.30;5.88;;;14.90;94.10;;;;;;5083430;28;20119;-54
2021/08/17 06:28:18;;;;;;;14.75;6.15;;;15.00;93.90;;;;;;5084626;28;20037;-53
2021/08/17 06:30:44;;;;;;;12.40;6.15;;;15.00;93.90;;;;;;5088934;28;20043;-51
2021/08/17 06:33:10;;;;;;;13.23;5.70;;;15.00;93.80;;;;;;5070903;28;20459;-49
2021/08/17 06:35:35;;;;;;;12.13;6.72;;;15.00;93.60;;;;;;5091516;28;20038;-51
2021/08/17 06:38:01;;;;;;;9.95;5.72;;;14.90;94.00;;;;;;5077563;28;20130;-54
2021/08/17 06:40:27;;;;;;;16.88;6.63;;;15.00;94.00;;;;;;5071999;28;20043;-51
2021/08/17 06:42:53;;;;;;;11.32;6.32;;;15.00;93.70;;;;;;5071937;28;20070;-54
2021/08/17 06:45:19;;;;;;;12.90;5.80;;;15.10;93.60;;;;;;5071715;28;20040;-56
2021/08/17 06:47:45;;;;;;;13.25;6.10;;;15.10;93.50;;;;;;5071349;28;20035;-53
2021/08/17 06:50:11;;;;;;;12.80;6.28;;;15.10;93.50;;;;;;5071486;28;20028;-56
2021/08/17 06:52:37;;;;;;;12.88;5.47;;;15.20;93.50;;;;;;5072233;28;20079;-53
2021/08/17 06:55:02;;;;;;;11.07;5.80;;;15.10;92.60;;;;;;5071888;28;20029;-54
2021/08/17 06:57:28;;;;;;;10.02;5.43;;;15.00;93.40;;;;;;5071535;28;20039;-51
2021/08/17 06:59:54;;;;;;;12.63;6.35;;;14.90;93.60;;;;;;5077794;28;20043;-55
2021/08/17 07:02:20;;;;;;;13.43;5.60;;;14.80;93.80;;;;;;5092834;28;20036;-52
2021/08/17 07:04:45;;;;;;;18.05;6.80;;;14.90;93.70;;;;;;5074007;28;20088;-55
2021/08/17 07:07:11;;;;;;;11.25;5.57;;;14.80;93.70;;;;;;5091533;28;20024;-56
2021/08/17 07:09:36;;;;;;;12.65;5.53;;;14.90;93.30;;;;;;5091590;28;20047;-54
2021/08/17 07:12:02;;;;;;;11.50;6.57;;;14.90;93.00;;;;;;5076544;28;20037;-49
2021/08/17 07:14:28;;;;;;;14.35;5.57;;;15.10;93.20;;;;;;5071866;28;20033;-55
2021/08/17 07:16:53;;;;;;;11.80;6.43;;;15.20;92.90;;;;;;5071036;28;20722;-52
2021/08/17 07:19:19;;;;;;;11.10;5.85;;;15.10;92.70;;;;;;5076204;28;20033;-51
2021/08/17 07:21:45;;;;;;;12.50;5.60;;;15.00;92.70;;;;;;5091380;28;20396;-52
2021/08/17 07:24:10;;;;;;;20.90;6.10;;;14.80;93.00;;;;;;5093123;28;20036;-51
2021/08/17 07:26:36;;;;;;;9.80;5.45;;;14.70;93.20;;;;;;5076399;28;20059;-55
2021/08/17 07:29:02;;;;;;;13.27;6.60;;;14.90;93.00;;;;;;5076491;28;20027;-55
2021/08/17 07:31:27;;;;;;;10.98;5.63;;;14.90;93.00;;;;;;5094653;28;20032;-52
2021/08/17 07:33:53;;;;;;;11.90;5.75;;;15.10;92.70;;;;;;5094541;28;20085;-54
2021/08/17 07:36:19;;;;;;;8.93;5.10;;;15.10;92.40;;;;;;5095330;28;20395;-51
2021/08/17 07:38:44;;;;;;;14.75;5.25;;;15.00;91.80;;;;;;5095794;28;20035;-51
2021/08/17 07:41:10;;;;;;;12.90;5.47;;;15.10;91.40;;;;;;5095210;28;20062;-54
2021/08/17 07:43:36;;;;;;;10.85;4.88;;;15.20;91.30;;;;;;5095010;28;20548;-50
2021/08/17 07:46:01;;;;;;;16.88;6.30;;;15.30;91.40;;;;;;5094704;28;20024;-57
2021/08/17 07:48:27;;;;;;;11.88;4.90;;;15.20;91.20;;;;;;5094535;28;20067;-49
2021/08/17 07:50:53;;;;;;;11.98;5.28;;;15.30;91.20;;;;;;5094887;28;20055;-53
2021/08/17 07:53:19;;;;;;;13.98;5.22;;;15.30;91.30;;;;;;5094726;28;20020;-56
2021/08/17 07:55:44;;;;;;;12.00;5.45;;;15.40;91.50;;;;;;5094942;28;20035;-55
2021/08/17 07:58:10;;;;;;;19.15;6.15;;;15.50;91.50;;;;;;5079955;28;20063;-51
2021/08/17 08:00:36;;;;;;;12.57;5.13;;;15.30;91.50;;;;;;5092322;28;20030;-53
2021/08/17 08:03:02;;;;;;;12.80;5.35;;;15.30;91.80;;;;;;5084795;28;20036;-52
2021/08/17 08:05:28;;;;;;;13.55;6.03;;;15.50;91.40;;;;;;5091402;28;20056;-51
2021/08/17 08:07:53;;;;;;;10.93;4.90;;;15.70;91.00;;;;;;5094274;28;20035;-53
2021/08/17 08:10:19;;;;;;;13.40;5.03;;;15.80;90.80;;;;;;5094483;28;20024;-51
2021/08/17 08:12:45;;;;;;;15.82;5.35;;;15.90;90.80;;;;;;5094743;28;20105;-51
2021/08/17 08:15:11;;;;;;;15.38;5.68;;;15.80;89.60;;;;;;5094164;28;20479;-50
2021/08/17 08:17:37;;;;;;;10.35;4.93;;;15.70;89.70;;;;;;5094269;28;20040;-52
2021/08/17 08:20:03;;;;;;;12.75;4.70;;;15.70;88.80;;;;;;5094404;28;20039;-56
2021/08/17 08:22:29;;;;;;;8.38;5.18;;;15.70;87.10;;;;;;5076199;28;20028;-55
2021/08/17 08:24:54;;;;;;;13.55;5.10;;;15.70;87.80;;;;;;5093957;28;20024;-51
2021/08/17 08:27:20;;;;;;;12.38;5.20;;;15.70;88.10;;;;;;5093442;28;20470;-54
2021/08/17 08:29:45;;;;;;;13.60;5.35;;;15.70;87.80;;;;;;5075989;28;20032;-56
2021/08/17 08:32:11;;;;;;;12.98;4.93;;;15.80;87.70;;;;;;5094108;28;20400;-52
2021/08/17 08:34:37;;;;;;;11.90;5.32;;;16.10;87.10;;;;;;5094191;28;20504;-52
2021/08/17 08:37:03;;;;;;;10.45;4.60;;;16.20;86.50;;;;;;5092886;28;20024;-50
2021/08/17 08:39:29;;;;;;;14.07;5.35;;;16.20;86.30;;;;;;5093830;28;20487;-57
2021/08/17 08:41:55;;;;;;;9.10;5.10;;;16.20;86.60;;;;;;5094015;28;20120;-52
2021/08/17 08:44:21;;;;;;;9.85;4.80;;;16.30;86.40;;;;;;5093720;28;20028;-52
2021/08/17 08:46:48;;;;;;;15.40;5.13;;;16.20;85.70;;;;;;5093681;28;20372;-54
2021/08/17 08:49:14;;;;;;;8.43;4.20;;;16.30;85.10;;;;;;5093580;28;20027;-54
2021/08/17 08:51:40;;;;;;;8.07;4.45;;;16.20;83.70;;;;;;5093840;28;20024;-52
2021/08/17 08:54:07;;;;;;;11.02;4.40;;;16.20;84.10;;;;;;5093691;28;20397;-51
2021/08/17 08:56:32;;;;;;;11.30;4.22;;;16.30;83.10;;;;;;5093486;28;20028;-54
2021/08/17 08:58:58;;;;;;;10.88;4.28;;;16.30;82.40;;;;;;5075586;28;20109;-55
2021/08/17 09:01:25;;;;;;;16.05;5.03;;;16.40;79.30;;;;;;5093252;28;20036;-56
2021/08/17 09:03:53;;;;;;;8.93;4.35;;;16.40;80.30;;;;;;5093632;28;20024;-53
2021/08/17 09:06:29;;;;;;;10.25;4.63;;;16.60;78.90;;;;;;5093057;28;20067;-50
2021/08/17 09:09:14;;;;;;;10.93;4.35;;;16.70;78.30;;;;;;5093464;28;20094;-54
2021/08/17 09:11:46;;;;;;;6.07;4.00;;;16.80;79.70;;;;;;5093331;28;20037;-55
2021/08/17 09:14:20;;;;;;;10.90;5.18;;;17.20;79.60;;;;;;5091194;28;20016;-55
2021/08/17 09:16:48;;;;;;;8.55;4.00;;;17.20;78.80;;;;;;5092955;28;20028;-55
2021/08/17 09:19:27;;;;;;;13.95;4.80;;;17.50;78.90;;;;;;5080771;28;20028;-54
2021/08/17 09:21:54;;;;;;;8.65;4.60;;;17.40;77.40;;;;;;5085028;28;20082;-52
2021/08/17 09:24:22;;;;;;;16.38;4.78;;;17.20;78.20;;;;;;5072720;28;20033;-54
2021/08/17 09:26:53;;;;;;;11.48;4.65;;;17.20;78.30;;;;;;5054359;28;20039;-53
2021/08/17 09:29:24;;;;;;;13.27;4.70;;;17.00;78.80;;;;;;5072990;28;20036;-51
2021/08/17 09:31:52;;;;;;;12.45;4.65;;;16.80;79.80;;;;;;5091467;28;20077;-55
2021/08/17 09:34:19;;;;;;;16.15;4.97;;;16.90;79.90;;;;;;5092783;28;20084;-53
2021/08/17 09:36:46;;;;;;;12.63;4.75;;;16.90;79.80;;;;;;5074719;28;20039;-50
2021/08/17 09:39:30;;;;;;;11.23;4.78;;;16.70;79.90;;;;;;5093319;28;20032;-52
2021/08/17 09:42:31;;;;;;;9.32;4.05;;;16.90;79.50;;;;;;5092541;28;20074;-52
2021/08/17 09:45:06;;;;;;;13.55;4.10;;;17.00;77.80;;;;;;5069677;28;20047;-52
2021/08/17 09:47:36;;;;;;;11.13;4.30;;;16.90;78.70;;;;;;5091426;28;20503;-56
2021/08/17 09:50:33;;;;;;;10.45;3.88;;;17.00;78.80;;;;;;5092489;28;20173;-52
2021/08/17 09:53:14;;;;;;;10.05;3.90;;;17.00;77.20;;;;;;5088582;28;20021;-53
2021/08/17 09:55:48;;;;;;;10.32;4.28;;;17.00;77.80;;;;;;5071826;28;20021;-56
2021/08/17 09:58:34;;;;;;;10.13;4.35;;;17.00;78.60;;;;;;5072418;28;20040;-53
2021/08/17 10:01:03;;;;;;;14.10;4.20;;;17.00;77.50;;;;;;5071921;28;20389;-53
2021/08/17 10:03:30;;;;;;;13.55;4.47;;;17.00;77.60;;;;;;5072362;28;20082;-56
2021/08/17 10:05:57;;;;;;;10.93;4.70;;;17.00;77.80;;;;;;5072240;28;20399;-57
2021/08/17 10:08:30;;;;;;;11.05;4.03;;;17.10;77.50;;;;;;5080967;28;20452;-57
2021/08/17 10:10:56;;;;;;;11.52;4.40;;;17.00;78.00;;;;;;5093434;28;20036;-54
2021/08/17 10:13:24;;;;;;;9.93;4.40;;;17.20;78.30;;;;;;5093729;28;20059;-53
2021/08/17 10:15:50;;;;;;;9.93;4.50;;;17.40;78.10;;;;;;5092274;28;20042;-53
2021/08/17 10:18:36;;;;;;;10.23;4.25;;;17.40;77.90;;;;;;5091961;28;20085;-55
2021/08/17 10:21:03;;;;;;;10.20;4.35;;;17.40;78.00;;;;;;5089985;28;20110;-57
2021/08/17 10:23:30;;;;;;;11.57;4.40;;;17.40;77.10;;;;;;5071988;28;20029;-53
2021/08/17 10:25:58;;;;;;;10.70;4.47;;;17.40;77.40;;;;;;5071887;28;20543;-54
2021/08/17 10:28:29;;;;;;;10.95;3.78;;;17.50;76.00;;;;;;5071362;28;20036;-53
2021/08/17 10:30:55;;;;;;;7.88;4.45;;;17.40;76.50;;;;;;5071730;28;20122;-55
2021/08/17 10:33:46;;;;;;;6.88;4.00;;;17.40;75.60;;;;;;5072423;28;20039;-54
2021/08/17 10:36:28;;;;;;;10.43;4.35;;;17.40;76.00;;;;;;5071954;28;20048;-54
2021/08/17 10:38:54;;;;;;;10.45;5.00;;;17.30;76.40;;;;;;5071676;28;20503;-57
2021/08/17 10:41:32;;;;;;;8.90;4.50;;;17.60;75.60;;;;;;5071694;28;20037;-57
2021/08/17 10:43:57;;;;;;;10.38;4.53;;;17.70;75.60;;;;;;5071793;28;20040;-55
2021/08/17 10:46:54;;;;;;;12.00;4.28;;;17.50;75.90;;;;;;5071404;28;20031;-56
2021/08/17 10:49:40;;;;;;;10.85;4.68;;;17.70;75.70;;;;;;5083771;28;20036;-55
2021/08/17 10:52:07;;;;;;;9.07;3.92;;;17.90;73.00;;;;;;5077997;28;20118;-55
2021/08/17 10:54:35;;;;;;;7.68;3.80;;;17.70;72.80;;;;;;5092138;28;20094;-55
2021/08/17 10:57:21;;;;;;;10.27;4.03;;;17.80;73.20;;;;;;5092456;28;20032;-55
2021/08/17 10:59:49;;;;;;;9.63;4.47;;;17.90;72.00;;;;;;5094966;28;20168;-57
2021/08/17 11:02:19;;;;;;;8.63;4.10;;;18.10;72.20;;;;;;5095382;28;20484;-57
2021/08/17 11:04:46;;;;;;;11.88;5.18;;;18.10;72.20;;;;;;5096084;28;20024;-56
2021/08/17 11:07:24;;;;;;;8.40;4.05;;;18.20;72.40;;;;;;5095463;28;20035;-57
2021/08/17 11:09:50;;;;;;;9.73;3.92;;;18.50;72.40;;;;;;5075581;28;20352;-53
2021/08/17 11:12:17;;;;;;;7.78;4.40;;;18.80;72.10;;;;;;5057576;28;20333;-55
2021/08/17 11:14:45;;;;;;;8.02;4.05;;;18.80;71.20;;;;;;5075478;28;20124;-56
2021/08/17 11:17:15;;;;;;;10.70;4.22;;;18.60;71.10;;;;;;5091823;28;20028;-55
2021/08/17 11:19:46;;;;;;;13.25;5.28;;;18.70;70.00;;;;;;5087750;28;20034;-55
2021/08/17 11:22:18;;;;;;;11.00;4.60;;;18.60;70.30;;;;;;5087283;28;20035;-57
2021/08/17 11:24:51;;;;;;;9.80;4.30;;;18.40;71.00;;;;;;5095349;28;20035;-55
2021/08/17 11:27:22;;;;;;;9.50;4.20;;;18.30;70.90;;;;;;5094469;28;20093;-54
2021/08/17 11:29:51;;;;;;;10.55;4.93;;;18.60;71.00;;;;;;5095446;28;20036;-53
2021/08/17 11:32:36;;;;;;;11.85;4.78;;;18.60;70.00;;;;;;5095331;28;20031;-57
2021/08/17 11:35:08;;;;;;;9.52;3.80;;;18.70;67.90;;;;;;5094962;28;20391;-58
2021/08/17 11:37:35;;;;;;;10.77;4.50;;;19.00;69.00;;;;;;5094743;28;20043;-55
2021/08/17 11:40:03;;;;;;;9.80;4.82;;;19.10;69.20;;;;;;5094709;28;20476;-53
2021/08/17 11:42:35;;;;;;;7.53;4.28;;;19.10;69.60;;;;;;5095119;28;20090;-56
2021/08/17 11:45:10;;;;;;;9.07;4.57;;;18.90;69.40;;;;;;5095207;28;20029;-56
2021/08/17 11:47:37;;;;;;;8.50;4.53;;;18.80;69.30;;;;;;5094854;28;20032;-56
2021/08/17 11:50:06;;;;;;;12.35;4.65;;;18.70;69.80;;;;;;5094908;28;20560;-57
2021/08/17 11:52:38;;;;;;;9.35;4.57;;;18.90;70.30;;;;;;5094421;28;20032;-54
2021/08/17 11:55:03;;;;;;;11.23;5.07;;;19.00;67.90;;;;;;5094376;28;20024;-56
2021/08/17 11:57:33;;;;;;;7.88;4.57;;;18.90;68.50;;;;;;5096291;28;20108;-54
2021/08/17 12:00:23;;;;;;;9.00;5.00;;;18.80;68.50;;;;;;5095017;28;20024;-55
2021/08/17 12:02:54;;;;;;;8.98;5.03;;;18.70;68.90;;;;;;5094548;28;20561;-53
2021/08/17 12:05:22;;;;;;;16.35;5.32;;;18.70;68.70;;;;;;5094183;28;20055;-53
2021/08/17 12:07:50;;;;;;;13.75;4.90;;;18.80;68.90;;;;;;5094030;28;20393;-56
2021/08/17 12:10:45;;;;;;;8.73;5.35;;;19.00;68.90;;;;;;5094538;28;20043;-55
2021/08/17 12:13:13;;;;;;;8.30;4.47;;;19.00;69.20;;;;;;5073038;28;20035;-57
2021/08/17 12:15:47;;;;;;;9.05;5.65;;;19.30;69.50;;;;;;5094476;28;20047;-57
2021/08/17 12:18:15;;;;;;;9.07;5.75;;;19.30;67.70;;;;;;5094321;28;20552;-56
2021/08/17 12:20:53;;;;;;;8.45;5.32;;;19.30;67.80;;;;;;5094057;28;20117;-54
2021/08/17 12:23:23;;;;;;;11.43;5.85;;;19.30;66.90;;;;;;5056100;28;20043;-57
2021/08/17 12:25:51;;;;;;;10.88;5.70;;;19.20;67.90;;;;;;5055979;28;20098;-51
2021/08/17 12:28:32;;;;;;;8.43;5.25;;;19.20;68.40;;;;;;5073649;28;20041;-54
2021/08/17 12:31:19;;;;;;;14.13;6.15;;;19.10;67.40;;;;;;5073912;28;20040;-55
2021/08/17 12:33:54;;;;;;;8.52;5.45;;;18.90;68.10;;;;;;5055763;28;20074;-56
2021/08/17 12:36:44;;;;;;;10.90;5.93;;;18.90;68.90;;;;;;5073812;28;20032;-54
2021/08/17 12:39:36;;;;;;;12.10;5.80;;;19.00;69.30;;;;;;5061550;28;20452;-51
2021/08/17 12:42:06;;;;;;;11.60;5.97;;;19.00;69.10;;;;;;5073660;28;20037;-55